createdAt,value
2018-02-22T18:00:55.994Z,10.93
2018-02-22T18:03:25.430Z,10.40
2018-02-22T18:05:53.630Z,9.93
2018-02-22T18:08:22.216Z,9.83
2018-02-22T18:10:51.268Z,10.13
2018-02-22T18:13:19.437Z,9.33
2018-02-22T18:15:47.667Z,10.23
2018-02-22T18:18:16.610Z,9.80
2018-02-22T18:20:44.836Z,9.83
2018-02-22T18:23:12.978Z,10.00
2018-02-22T18:25:41.920Z,9.90
2018-02-22T18:28:10.156Z,10.03
2018-02-22T18:30:40.980Z,11.20
2018-02-22T18:33:09.380Z,11.07
2018-02-22T18:35:37.538Z,9.97
2018-02-22T18:38:05.703Z,10.83
2018-02-22T18:40:39.623Z,10.40
2018-02-22T18:43:14.377Z,10.30
2018-02-22T18:45:42.737Z,11.10
2018-02-22T18:48:10.967Z,11.33
2018-02-22T18:50:39.161Z,11.37
2018-02-22T18:53:07.501Z,11.33
2018-02-22T18:55:35.667Z,11.53
2018-02-22T18:58:03.826Z,11.27
2018-02-22T19:00:31.968Z,10.90
2018-02-22T19:03:01.059Z,11.30
2018-02-22T19:05:29.398Z,11.70
2018-02-22T19:07:57.573Z,11.80
2018-02-22T19:10:25.730Z,12.60
2018-02-22T19:12:53.899Z,16.13
2018-02-22T19:15:22.381Z,12.93
2018-02-22T19:17:50.547Z,12.07
2018-02-22T19:20:18.833Z,12.00
2018-02-22T19:22:46.995Z,11.97
2018-02-22T19:25:15.197Z,11.67
2018-02-22T19:27:43.929Z,12.30
2018-02-22T19:30:12.869Z,13.03
2018-02-22T19:32:41.114Z,13.30
2018-02-22T19:35:10.187Z,13.10
2018-02-22T19:37:38.360Z,12.90
2018-02-22T19:40:06.676Z,14.10
2018-02-22T19:42:34.859Z,13.47
2018-02-22T19:45:03.281Z,13.77
2018-02-22T19:47:31.455Z,14.73
2018-02-22T19:49:59.642Z,14.00
2018-02-22T19:52:28.585Z,14.50
2018-02-22T19:54:56.822Z,14.47
2018-02-22T19:57:25.871Z,14.80
2018-02-22T19:59:54.108Z,14.77
2018-02-22T20:04:56.841Z,15.10
2018-02-22T20:07:25.009Z,14.70
2018-02-22T20:09:53.181Z,15.60
2018-02-22T20:12:21.436Z,14.87
2018-02-22T20:14:51.197Z,15.17
2018-02-22T20:17:19.503Z,14.40
2018-02-22T20:19:48.343Z,14.63
2018-02-22T20:22:17.468Z,15.90
2018-02-22T20:24:46.225Z,17.43
2018-02-22T20:27:14.406Z,16.73
2018-02-22T20:29:42.582Z,16.67
2018-02-22T20:32:10.757Z,16.40
2018-02-22T20:34:38.943Z,16.23
2018-02-22T20:37:07.118Z,15.50
2018-02-22T20:39:35.390Z,16.97
2018-02-22T20:42:03.643Z,17.27
2018-02-22T20:44:32.576Z,16.50
2018-02-22T20:47:01.549Z,17.10
2018-02-22T20:49:30.505Z,16.83
2018-02-22T20:51:58.715Z,17.37
2018-02-22T20:54:28.387Z,16.80
2018-02-22T20:56:56.555Z,17.93
2018-02-22T20:59:25.507Z,17.57
2018-02-22T21:01:54.396Z,16.90
2018-02-22T21:04:22.628Z,16.53
2018-02-22T21:06:51.005Z,17.40
2018-02-22T21:09:19.296Z,17.33
2018-02-22T21:11:47.581Z,16.80
2018-02-22T21:14:15.744Z,17.93
2018-02-22T21:16:43.932Z,16.83
2018-02-22T21:19:15.105Z,17.03
2018-02-22T21:21:43.256Z,17.80
2018-02-22T21:24:11.563Z,16.70
2018-02-22T21:26:39.765Z,15.83
2018-02-22T21:29:08.019Z,17.63
2018-02-22T21:31:36.355Z,17.20
2018-02-22T21:34:04.582Z,17.57
2018-02-22T21:36:33.034Z,17.10
2018-02-22T21:39:01.981Z,17.40
2018-02-22T21:41:30.143Z,18.33
2018-02-22T21:43:59.134Z,17.63
2018-02-22T21:46:27.378Z,17.47
2018-02-22T21:48:55.543Z,17.13
2018-02-22T21:51:24.464Z,17.03
2018-02-22T21:53:52.654Z,17.70
2018-02-22T21:56:20.827Z,17.93
2018-02-22T21:58:54.248Z,17.83
2018-02-22T22:01:23.537Z,22.35
2018-02-22T22:03:51.702Z,18.90
2018-02-22T22:06:19.894Z,18.13
2018-02-22T22:08:48.072Z,17.70
2018-02-22T22:11:16.209Z,18.37
2018-02-22T22:13:44.491Z,17.43
2018-02-22T22:16:12.690Z,18.23
2018-02-22T22:18:40.852Z,17.10
2018-02-22T22:21:09.131Z,17.63
2018-02-22T22:23:37.405Z,17.53
2018-02-22T22:26:05.581Z,18.27
2018-02-22T22:28:33.786Z,17.30
2018-02-22T22:31:02.709Z,16.80
2018-02-22T22:33:30.941Z,18.00
2018-02-22T22:35:59.238Z,17.97
2018-02-22T22:38:27.383Z,17.83
2018-02-22T22:40:55.587Z,17.77
2018-02-22T22:43:23.903Z,17.47
2018-02-22T22:45:52.072Z,18.47
2018-02-22T22:48:20.215Z,17.90
2018-02-22T22:50:48.620Z,17.07
2018-02-22T22:53:17.121Z,17.87
2018-02-22T22:55:45.286Z,17.10
2018-02-22T22:58:13.431Z,16.70
2018-02-22T23:00:42.480Z,17.57
2018-02-22T23:03:10.639Z,17.67
2018-02-22T23:05:39.032Z,16.80
2018-02-22T23:08:07.431Z,17.03
2018-02-22T23:10:35.593Z,16.77
2018-02-22T23:13:03.830Z,17.03
2018-02-22T23:15:32.047Z,17.97
2018-02-22T23:18:00.268Z,16.70
2018-02-22T23:20:28.626Z,17.43
2018-02-22T23:22:57.567Z,16.50
2018-02-22T23:25:25.719Z,16.73
2018-02-22T23:27:53.966Z,17.00
2018-02-22T23:30:23.077Z,16.93
2018-02-22T23:32:51.362Z,17.37
2018-02-22T23:35:19.540Z,17.00
2018-02-22T23:37:47.887Z,17.40
2018-02-22T23:40:31.858Z,17.63
2018-02-22T23:43:00.881Z,17.63
2018-02-22T23:45:29.078Z,17.07
2018-02-22T23:47:57.244Z,16.83
2018-02-22T23:50:25.449Z,17.30
2018-02-22T23:52:54.434Z,17.13
2018-02-22T23:55:22.721Z,17.03
2018-02-22T23:57:51.713Z,17.60
